sensor_id;sensor_type;location;lat;lon;timestamp;temperature;humidity
25732;DHT22;13585;50.864;4.406;2023-04-03T00:01:09;16.80;74.90
25732;DHT22;13585;50.864;4.406;2023-04-03T00:03:36;16.90;74.80
25732;DHT22;13585;50.864;4.406;2023-04-03T00:06:02;16.80;74.70
25732;DHT22;13585;50.864;4.406;2023-04-03T00:08:28;16.80;74.70
25732;DHT22;13585;50.864;4.406;2023-04-03T00:10:56;16.80;74.60
25732;DHT22;13585;50.864;4.406;2023-04-03T00:13:22;16.80;74.60
25732;DHT22;13585;50.864;4.406;2023-04-03T00:15:48;16.80;74.50
25732;DHT22;13585;50.864;4.406;2023-04-03T00:18:14;16.80;74.40
25732;DHT22;13585;50.864;4.406;2023-04-03T00:20:40;16.80;74.40
25732;DHT22;13585;50.864;4.406;2023-04-03T00:23:06;16.80;74.40
25732;DHT22;13585;50.864;4.406;2023-04-03T00:25:32;16.80;74.20
25732;DHT22;13585;50.864;4.406;2023-04-03T00:27:58;16.80;74.20
25732;DHT22;13585;50.864;4.406;2023-04-03T00:30:24;16.80;74.20
25732;DHT22;13585;50.864;4.406;2023-04-03T00:32:51;16.80;74.20
25732;DHT22;13585;50.864;4.406;2023-04-03T00:35:17;16.80;74.00
25732;DHT22;13585;50.864;4.406;2023-04-03T00:37:43;16.80;74.10
25732;DHT22;13585;50.864;4.406;2023-04-03T00:40:10;16.80;74.00
25732;DHT22;13585;50.864;4.406;2023-04-03T00:42:40;16.80;73.90
25732;DHT22;13585;50.864;4.406;2023-04-03T00:47:39;16.80;73.80
25732;DHT22;13585;50.864;4.406;2023-04-03T00:50:06;16.80;73.70
25732;DHT22;13585;50.864;4.406;2023-04-03T00:52:32;16.70;73.60
25732;DHT22;13585;50.864;4.406;2023-04-03T00:55:02;16.70;73.50
25732;DHT22;13585;50.864;4.406;2023-04-03T00:57:30;16.70;73.50
25732;DHT22;13585;50.864;4.406;2023-04-03T01:00:01;16.70;73.40
25732;DHT22;13585;50.864;4.406;2023-04-03T01:02:29;16.70;73.40
25732;DHT22;13585;50.864;4.406;2023-04-03T01:04:55;16.80;73.30
25732;DHT22;13585;50.864;4.406;2023-04-03T01:07:23;16.70;73.30
25732;DHT22;13585;50.864;4.406;2023-04-03T01:09:53;16.70;73.90
25732;DHT22;13585;50.864;4.406;2023-04-03T01:12:24;16.70;73.10
25732;DHT22;13585;50.864;4.406;2023-04-03T01:14:52;16.70;73.00
25732;DHT22;13585;50.864;4.406;2023-04-03T01:17:39;16.70;73.00
25732;DHT22;13585;50.864;4.406;2023-04-03T01:25:51;16.70;72.70
25732;DHT22;13585;50.864;4.406;2023-04-03T01:28:21;16.70;72.70
25732;DHT22;13585;50.864;4.406;2023-04-03T01:31:08;16.70;72.50
25732;DHT22;13585;50.864;4.406;2023-04-03T01:33:36;16.70;72.60
25732;DHT22;13585;50.864;4.406;2023-04-03T01:36:03;16.70;72.40
25732;DHT22;13585;50.864;4.406;2023-04-03T01:38:28;16.70;72.40
25732;DHT22;13585;50.864;4.406;2023-04-03T01:40:54;16.70;72.30
25732;DHT22;13585;50.864;4.406;2023-04-03T01:43:20;16.70;72.20
25732;DHT22;13585;50.864;4.406;2023-04-03T01:45:45;16.70;72.20
25732;DHT22;13585;50.864;4.406;2023-04-03T01:48:12;16.70;72.10
25732;DHT22;13585;50.864;4.406;2023-04-03T01:50:38;16.70;72.00
25732;DHT22;13585;50.864;4.406;2023-04-03T01:53:04;16.70;72.00
25732;DHT22;13585;50.864;4.406;2023-04-03T01:55:30;16.70;71.90
25732;DHT22;13585;50.864;4.406;2023-04-03T01:57:55;16.70;71.90
25732;DHT22;13585;50.864;4.406;2023-04-03T02:00:21;16.70;71.80
25732;DHT22;13585;50.864;4.406;2023-04-03T02:02:46;16.60;71.60
25732;DHT22;13585;50.864;4.406;2023-04-03T02:05:12;16.70;71.70
25732;DHT22;13585;50.864;4.406;2023-04-03T02:07:38;16.60;71.50
25732;DHT22;13585;50.864;4.406;2023-04-03T02:10:03;16.60;71.40
25732;DHT22;13585;50.864;4.406;2023-04-03T02:12:29;16.60;71.40
25732;DHT22;13585;50.864;4.406;2023-04-03T02:14:55;16.60;71.30
25732;DHT22;13585;50.864;4.406;2023-04-03T02:17:20;16.60;71.20
25732;DHT22;13585;50.864;4.406;2023-04-03T02:19:46;16.60;71.20
25732;DHT22;13585;50.864;4.406;2023-04-03T02:22:11;16.60;71.10
25732;DHT22;13585;50.864;4.406;2023-04-03T02:24:37;16.60;71.00
25732;DHT22;13585;50.864;4.406;2023-04-03T02:27:04;16.60;70.90
25732;DHT22;13585;50.864;4.406;2023-04-03T02:29:30;16.60;70.90
25732;DHT22;13585;50.864;4.406;2023-04-03T02:31:55;16.60;70.80
25732;DHT22;13585;50.864;4.406;2023-04-03T02:34:21;16.60;70.70
25732;DHT22;13585;50.864;4.406;2023-04-03T02:36:47;16.60;70.70
25732;DHT22;13585;50.864;4.406;2023-04-03T02:39:12;16.60;70.50
25732;DHT22;13585;50.864;4.406;2023-04-03T02:41:38;16.60;70.40
25732;DHT22;13585;50.864;4.406;2023-04-03T02:44:05;16.60;70.30
25732;DHT22;13585;50.864;4.406;2023-04-03T02:46:32;16.60;70.20
25732;DHT22;13585;50.864;4.406;2023-04-03T02:48:57;16.60;70.10
25732;DHT22;13585;50.864;4.406;2023-04-03T02:51:23;16.60;70.10
25732;DHT22;13585;50.864;4.406;2023-04-03T02:53:50;16.60;70.00
25732;DHT22;13585;50.864;4.406;2023-04-03T02:56:16;16.60;69.90
25732;DHT22;13585;50.864;4.406;2023-04-03T02:58:42;16.60;69.80
25732;DHT22;13585;50.864;4.406;2023-04-03T03:01:08;16.60;69.70
25732;DHT22;13585;50.864;4.406;2023-04-03T03:03:34;16.50;69.50
25732;DHT22;13585;50.864;4.406;2023-04-03T03:06:04;16.50;69.40
25732;DHT22;13585;50.864;4.406;2023-04-03T03:08:30;16.50;69.40
25732;DHT22;13585;50.864;4.406;2023-04-03T03:10:56;16.50;69.30
25732;DHT22;13585;50.864;4.406;2023-04-03T03:13:22;16.60;69.60
25732;DHT22;13585;50.864;4.406;2023-04-03T03:15:48;16.50;69.90
25732;DHT22;13585;50.864;4.406;2023-04-03T03:18:14;16.50;70.10
25732;DHT22;13585;50.864;4.406;2023-04-03T03:20:39;16.60;70.20
25732;DHT22;13585;50.864;4.406;2023-04-03T03:23:05;16.50;70.30
25732;DHT22;13585;50.864;4.406;2023-04-03T03:25:31;16.50;70.30
25732;DHT22;13585;50.864;4.406;2023-04-03T03:27:56;16.50;70.40
25732;DHT22;13585;50.864;4.406;2023-04-03T03:30:22;16.60;71.20
25732;DHT22;13585;50.864;4.406;2023-04-03T03:32:48;16.50;70.30
25732;DHT22;13585;50.864;4.406;2023-04-03T03:35:13;16.50;70.30
25732;DHT22;13585;50.864;4.406;2023-04-03T03:37:39;16.50;70.30
25732;DHT22;13585;50.864;4.406;2023-04-03T03:40:05;16.60;70.30
25732;DHT22;13585;50.864;4.406;2023-04-03T03:42:31;16.50;70.20
25732;DHT22;13585;50.864;4.406;2023-04-03T03:44:56;16.50;70.20
25732;DHT22;13585;50.864;4.406;2023-04-03T03:47:22;16.50;70.20
25732;DHT22;13585;50.864;4.406;2023-04-03T03:49:48;16.50;70.10
25732;DHT22;13585;50.864;4.406;2023-04-03T03:52:13;16.50;70.10
25732;DHT22;13585;50.864;4.406;2023-04-03T03:54:39;16.50;70.00
25732;DHT22;13585;50.864;4.406;2023-04-03T03:57:05;16.50;70.00
25732;DHT22;13585;50.864;4.406;2023-04-03T03:59:31;16.50;69.90
25732;DHT22;13585;50.864;4.406;2023-04-03T04:01:56;16.50;69.90
25732;DHT22;13585;50.864;4.406;2023-04-03T04:04:22;16.50;69.90
25732;DHT22;13585;50.864;4.406;2023-04-03T04:06:47;16.50;69.90
25732;DHT22;13585;50.864;4.406;2023-04-03T04:09:13;16.50;69.80
25732;DHT22;13585;50.864;4.406;2023-04-03T04:11:38;16.50;69.80
25732;DHT22;13585;50.864;4.406;2023-04-03T04:14:06;16.50;69.80
25732;DHT22;13585;50.864;4.406;2023-04-03T04:16:32;16.50;69.80
25732;DHT22;13585;50.864;4.406;2023-04-03T04:18:57;16.50;69.80
25732;DHT22;13585;50.864;4.406;2023-04-03T04:21:23;16.50;69.80
25732;DHT22;13585;50.864;4.406;2023-04-03T04:23:49;16.50;69.80
25732;DHT22;13585;50.864;4.406;2023-04-03T04:26:14;16.50;69.80
25732;DHT22;13585;50.864;4.406;2023-04-03T04:28:40;16.50;70.10
25732;DHT22;13585;50.864;4.406;2023-04-03T04:31:06;16.50;69.80
25732;DHT22;13585;50.864;4.406;2023-04-03T04:33:31;16.50;69.70
25732;DHT22;13585;50.864;4.406;2023-04-03T04:35:57;16.50;69.80
25732;DHT22;13585;50.864;4.406;2023-04-03T04:38:23;16.50;69.70
25732;DHT22;13585;50.864;4.406;2023-04-03T04:40:48;16.50;69.80
25732;DHT22;13585;50.864;4.406;2023-04-03T04:43:14;16.50;69.70
25732;DHT22;13585;50.864;4.406;2023-04-03T04:45:41;16.50;70.50
25732;DHT22;13585;50.864;4.406;2023-04-03T04:48:06;16.50;69.70
25732;DHT22;13585;50.864;4.406;2023-04-03T04:50:32;16.50;69.80
25732;DHT22;13585;50.864;4.406;2023-04-03T04:52:58;16.50;69.80
25732;DHT22;13585;50.864;4.406;2023-04-03T04:55:23;16.50;69.80
25732;DHT22;13585;50.864;4.406;2023-04-03T04:57:49;16.50;69.70
25732;DHT22;13585;50.864;4.406;2023-04-03T05:00:15;16.50;69.70
25732;DHT22;13585;50.864;4.406;2023-04-03T05:02:41;16.50;70.50
25732;DHT22;13585;50.864;4.406;2023-04-03T05:05:07;16.50;69.70
25732;DHT22;13585;50.864;4.406;2023-04-03T05:07:33;16.50;69.70
25732;DHT22;13585;50.864;4.406;2023-04-03T05:09:58;16.50;69.70
25732;DHT22;13585;50.864;4.406;2023-04-03T05:12:24;16.50;69.70
25732;DHT22;13585;50.864;4.406;2023-04-03T05:14:50;16.60;69.80
25732;DHT22;13585;50.864;4.406;2023-04-03T05:17:15;16.50;69.70
25732;DHT22;13585;50.864;4.406;2023-04-03T05:19:41;16.50;69.70
25732;DHT22;13585;50.864;4.406;2023-04-03T05:22:06;16.50;69.70
25732;DHT22;13585;50.864;4.406;2023-04-03T05:24:32;16.60;69.70
25732;DHT22;13585;50.864;4.406;2023-04-03T05:26:58;16.50;69.60
25732;DHT22;13585;50.864;4.406;2023-04-03T05:29:24;16.50;69.70
25732;DHT22;13585;50.864;4.406;2023-04-03T05:31:50;16.50;69.60
25732;DHT22;13585;50.864;4.406;2023-04-03T05:34:16;16.50;69.60
25732;DHT22;13585;50.864;4.406;2023-04-03T05:36:42;16.60;69.70
25732;DHT22;13585;50.864;4.406;2023-04-03T05:39:08;16.60;69.70
25732;DHT22;13585;50.864;4.406;2023-04-03T05:41:34;16.50;69.60
25732;DHT22;13585;50.864;4.406;2023-04-03T05:43:59;16.50;69.60
25732;DHT22;13585;50.864;4.406;2023-04-03T05:46:28;16.50;69.60
25732;DHT22;13585;50.864;4.406;2023-04-03T05:48:54;16.50;69.60
25732;DHT22;13585;50.864;4.406;2023-04-03T05:51:33;16.60;69.70
25732;DHT22;13585;50.864;4.406;2023-04-03T05:54:06;16.60;69.70
25732;DHT22;13585;50.864;4.406;2023-04-03T05:56:34;16.60;69.70
25732;DHT22;13585;50.864;4.406;2023-04-03T05:59:00;16.60;69.70
25732;DHT22;13585;50.864;4.406;2023-04-03T06:01:25;16.60;69.70
25732;DHT22;13585;50.864;4.406;2023-04-03T06:03:51;16.60;69.70
25732;DHT22;13585;50.864;4.406;2023-04-03T06:06:17;16.60;69.70
25732;DHT22;13585;50.864;4.406;2023-04-03T06:08:43;16.60;69.70
25732;DHT22;13585;50.864;4.406;2023-04-03T06:11:09;16.60;69.70
25732;DHT22;13585;50.864;4.406;2023-04-03T06:13:34;16.60;69.60
25732;DHT22;13585;50.864;4.406;2023-04-03T06:16:00;16.60;69.60
25732;DHT22;13585;50.864;4.406;2023-04-03T06:18:26;16.60;69.60
25732;DHT22;13585;50.864;4.406;2023-04-03T06:20:52;16.60;69.60
25732;DHT22;13585;50.864;4.406;2023-04-03T06:23:17;16.60;69.50
25732;DHT22;13585;50.864;4.406;2023-04-03T06:25:43;16.60;69.50
25732;DHT22;13585;50.864;4.406;2023-04-03T06:28:09;16.60;69.50
25732;DHT22;13585;50.864;4.406;2023-04-03T06:30:36;16.60;69.40
25732;DHT22;13585;50.864;4.406;2023-04-03T06:33:02;16.60;69.40
25732;DHT22;13585;50.864;4.406;2023-04-03T06:35:29;16.60;69.40
25732;DHT22;13585;50.864;4.406;2023-04-03T06:37:55;16.70;69.40
25732;DHT22;13585;50.864;4.406;2023-04-03T06:40:23;16.60;69.20
25732;DHT22;13585;50.864;4.406;2023-04-03T06:42:49;16.60;69.30
25732;DHT22;13585;50.864;4.406;2023-04-03T06:45:16;16.60;69.20
25732;DHT22;13585;50.864;4.406;2023-04-03T06:47:42;16.60;69.20
25732;DHT22;13585;50.864;4.406;2023-04-03T06:50:10;16.60;69.20
25732;DHT22;13585;50.864;4.406;2023-04-03T06:52:37;16.60;69.10
25732;DHT22;13585;50.864;4.406;2023-04-03T06:55:03;16.60;69.10
25732;DHT22;13585;50.864;4.406;2023-04-03T06:57:29;16.60;69.00
25732;DHT22;13585;50.864;4.406;2023-04-03T06:59:55;16.60;69.00
25732;DHT22;13585;50.864;4.406;2023-04-03T07:02:20;16.60;69.00
25732;DHT22;13585;50.864;4.406;2023-04-03T07:04:47;16.60;68.90
25732;DHT22;13585;50.864;4.406;2023-04-03T07:07:12;16.70;68.90
25732;DHT22;13585;50.864;4.406;2023-04-03T07:09:38;16.60;68.80
25732;DHT22;13585;50.864;4.406;2023-04-03T07:12:04;16.70;68.70
25732;DHT22;13585;50.864;4.406;2023-04-03T07:14:29;16.70;69.50
25732;DHT22;13585;50.864;4.406;2023-04-03T07:16:55;16.60;68.60
25732;DHT22;13585;50.864;4.406;2023-04-03T07:19:21;16.70;68.70
25732;DHT22;13585;50.864;4.406;2023-04-03T07:21:46;16.60;68.50
25732;DHT22;13585;50.864;4.406;2023-04-03T07:24:12;16.70;68.50
25732;DHT22;13585;50.864;4.406;2023-04-03T07:26:37;16.60;68.50
25732;DHT22;13585;50.864;4.406;2023-04-03T07:29:03;16.60;68.40
25732;DHT22;13585;50.864;4.406;2023-04-03T07:31:29;16.70;68.50
25732;DHT22;13585;50.864;4.406;2023-04-03T07:33:55;16.60;68.40
25732;DHT22;13585;50.864;4.406;2023-04-03T07:36:22;16.70;68.40
25732;DHT22;13585;50.864;4.406;2023-04-03T07:38:47;16.70;68.30
25732;DHT22;13585;50.864;4.406;2023-04-03T07:41:18;16.70;68.20
25732;DHT22;13585;50.864;4.406;2023-04-03T07:43:45;16.60;68.10
25732;DHT22;13585;50.864;4.406;2023-04-03T07:46:12;16.70;68.90
25732;DHT22;13585;50.864;4.406;2023-04-03T07:48:38;16.70;68.10
25732;DHT22;13585;50.864;4.406;2023-04-03T07:51:05;16.70;68.00
25732;DHT22;13585;50.864;4.406;2023-04-03T07:53:31;16.70;68.00
25732;DHT22;13585;50.864;4.406;2023-04-03T07:55:58;16.70;68.00
25732;DHT22;13585;50.864;4.406;2023-04-03T07:58:24;16.70;67.80
25732;DHT22;13585;50.864;4.406;2023-04-03T08:00:51;16.70;67.70
25732;DHT22;13585;50.864;4.406;2023-04-03T08:03:16;16.70;67.70
25732;DHT22;13585;50.864;4.406;2023-04-03T08:05:45;16.70;67.70
25732;DHT22;13585;50.864;4.406;2023-04-03T08:08:12;16.70;67.60
25732;DHT22;13585;50.864;4.406;2023-04-03T08:10:39;16.70;67.50
25732;DHT22;13585;50.864;4.406;2023-04-03T08:13:05;16.70;67.50
25732;DHT22;13585;50.864;4.406;2023-04-03T08:15:31;16.70;67.30
25732;DHT22;13585;50.864;4.406;2023-04-03T08:17:59;16.70;67.30
25732;DHT22;13585;50.864;4.406;2023-04-03T08:20:26;16.70;67.30
25732;DHT22;13585;50.864;4.406;2023-04-03T08:22:52;16.70;67.20
25732;DHT22;13585;50.864;4.406;2023-04-03T08:25:17;16.70;67.10
25732;DHT22;13585;50.864;4.406;2023-04-03T08:27:43;16.70;67.00
25732;DHT22;13585;50.864;4.406;2023-04-03T08:30:10;16.70;67.00
25732;DHT22;13585;50.864;4.406;2023-04-03T08:32:36;16.70;67.00
25732;DHT22;13585;50.864;4.406;2023-04-03T08:35:02;16.70;66.90
25732;DHT22;13585;50.864;4.406;2023-04-03T08:37:28;16.70;66.80
25732;DHT22;13585;50.864;4.406;2023-04-03T08:39:54;16.70;66.80
25732;DHT22;13585;50.864;4.406;2023-04-03T08:45:32;16.70;66.80
25732;DHT22;13585;50.864;4.406;2023-04-03T08:50:36;16.70;66.60
25732;DHT22;13585;50.864;4.406;2023-04-03T08:53:03;16.70;66.60
25732;DHT22;13585;50.864;4.406;2023-04-03T08:55:41;16.70;66.60
25732;DHT22;13585;50.864;4.406;2023-04-03T08:58:30;16.70;66.60
25732;DHT22;13585;50.864;4.406;2023-04-03T09:01:00;16.70;66.60
25732;DHT22;13585;50.864;4.406;2023-04-03T09:03:31;16.70;66.50
25732;DHT22;13585;50.864;4.406;2023-04-03T09:08:34;16.70;66.50
25732;DHT22;13585;50.864;4.406;2023-04-03T09:11:24;16.70;66.50
25732;DHT22;13585;50.864;4.406;2023-04-03T09:16:57;16.70;66.50
25732;DHT22;13585;50.864;4.406;2023-04-03T09:22:20;16.70;66.40
25732;DHT22;13585;50.864;4.406;2023-04-03T09:24:52;16.70;66.40
25732;DHT22;13585;50.864;4.406;2023-04-03T09:27:21;16.70;66.40
25732;DHT22;13585;50.864;4.406;2023-04-03T09:29:47;16.80;66.40
25732;DHT22;13585;50.864;4.406;2023-04-03T09:32:34;16.70;66.40
25732;DHT22;13585;50.864;4.406;2023-04-03T09:37:50;16.70;66.50
25732;DHT22;13585;50.864;4.406;2023-04-03T09:42:52;16.80;66.40
25732;DHT22;13585;50.864;4.406;2023-04-03T09:45:31;16.80;66.20
25732;DHT22;13585;50.864;4.406;2023-04-03T09:48:18;16.70;66.40
25732;DHT22;13585;50.864;4.406;2023-04-03T10:01:33;16.70;66.60
25732;DHT22;13585;50.864;4.406;2023-04-03T10:06:50;16.70;66.80
25732;DHT22;13585;50.864;4.406;2023-04-03T10:09:25;16.70;66.80
25732;DHT22;13585;50.864;4.406;2023-04-03T10:14:33;16.80;67.00
25732;DHT22;13585;50.864;4.406;2023-04-03T10:17:02;16.80;67.00
25732;DHT22;13585;50.864;4.406;2023-04-03T10:22:44;16.80;67.20
25732;DHT22;13585;50.864;4.406;2023-04-03T10:25:28;16.80;67.10
25732;DHT22;13585;50.864;4.406;2023-04-03T10:28:00;16.80;67.20
25732;DHT22;13585;50.864;4.406;2023-04-03T10:30:39;16.80;67.40
25732;DHT22;13585;50.864;4.406;2023-04-03T10:33:36;16.80;67.60
25732;DHT22;13585;50.864;4.406;2023-04-03T10:36:20;16.80;67.80
25732;DHT22;13585;50.864;4.406;2023-04-03T10:44:15;16.90;68.00
25732;DHT22;13585;50.864;4.406;2023-04-03T10:46:49;16.90;68.10
25732;DHT22;13585;50.864;4.406;2023-04-03T10:49:30;16.90;68.20
25732;DHT22;13585;50.864;4.406;2023-04-03T10:57:49;16.90;68.50
25732;DHT22;13585;50.864;4.406;2023-04-03T11:00:39;16.90;68.60
25732;DHT22;13585;50.864;4.406;2023-04-03T11:05:50;16.90;68.80
25732;DHT22;13585;50.864;4.406;2023-04-03T11:08:45;17.00;68.80
25732;DHT22;13585;50.864;4.406;2023-04-03T11:11:19;16.90;69.10
25732;DHT22;13585;50.864;4.406;2023-04-03T11:16:24;17.00;69.20
25732;DHT22;13585;50.864;4.406;2023-04-03T11:18:56;17.00;69.30
25732;DHT22;13585;50.864;4.406;2023-04-03T11:21:45;17.00;69.30
25732;DHT22;13585;50.864;4.406;2023-04-03T11:24:33;17.00;69.50
25732;DHT22;13585;50.864;4.406;2023-04-03T11:27:02;17.00;69.50
25732;DHT22;13585;50.864;4.406;2023-04-03T11:29:35;17.00;69.50
25732;DHT22;13585;50.864;4.406;2023-04-03T11:32:35;17.00;69.70
25732;DHT22;13585;50.864;4.406;2023-04-03T11:35:08;17.00;69.80
25732;DHT22;13585;50.864;4.406;2023-04-03T11:37:39;17.10;69.70
25732;DHT22;13585;50.864;4.406;2023-04-03T11:40:27;17.10;69.80
25732;DHT22;13585;50.864;4.406;2023-04-03T11:43:03;17.10;70.10
25732;DHT22;13585;50.864;4.406;2023-04-03T11:50:47;17.10;70.10
25732;DHT22;13585;50.864;4.406;2023-04-03T12:16:06;17.20;70.80
25732;DHT22;13585;50.864;4.406;2023-04-03T12:18:40;17.20;71.00
25732;DHT22;13585;50.864;4.406;2023-04-03T12:21:07;17.20;71.10
25732;DHT22;13585;50.864;4.406;2023-04-03T12:23:35;17.20;71.20
25732;DHT22;13585;50.864;4.406;2023-04-03T12:26:21;17.20;71.30
25732;DHT22;13585;50.864;4.406;2023-04-03T12:28:48;17.20;71.50
25732;DHT22;13585;50.864;4.406;2023-04-03T12:31:15;17.30;71.50
25732;DHT22;13585;50.864;4.406;2023-04-03T12:34:24;17.20;71.60
25732;DHT22;13585;50.864;4.406;2023-04-03T12:37:02;17.30;71.90
25732;DHT22;13585;50.864;4.406;2023-04-03T12:42:29;17.30;72.00
25732;DHT22;13585;50.864;4.406;2023-04-03T12:45:12;17.30;72.30
25732;DHT22;13585;50.864;4.406;2023-04-03T12:47:42;17.30;72.20
25732;DHT22;13585;50.864;4.406;2023-04-03T12:50:37;17.30;72.30
25732;DHT22;13585;50.864;4.406;2023-04-03T12:53:12;17.30;72.60
25732;DHT22;13585;50.864;4.406;2023-04-03T12:55:38;17.40;72.60
25732;DHT22;13585;50.864;4.406;2023-04-03T12:58:39;17.30;72.70
25732;DHT22;13585;50.864;4.406;2023-04-03T13:01:17;17.30;72.90
25732;DHT22;13585;50.864;4.406;2023-04-03T13:03:50;17.30;72.90
25732;DHT22;13585;50.864;4.406;2023-04-03T13:06:23;17.30;73.00
25732;DHT22;13585;50.864;4.406;2023-04-03T13:08:54;17.40;73.20
25732;DHT22;13585;50.864;4.406;2023-04-03T13:11:21;17.40;73.30
25732;DHT22;13585;50.864;4.406;2023-04-03T13:13:58;17.40;73.30
25732;DHT22;13585;50.864;4.406;2023-04-03T13:16:24;17.40;73.50
25732;DHT22;13585;50.864;4.406;2023-04-03T13:18:54;17.40;74.20
25732;DHT22;13585;50.864;4.406;2023-04-03T13:21:31;17.40;73.60
25732;DHT22;13585;50.864;4.406;2023-04-03T13:24:00;17.40;73.70
25732;DHT22;13585;50.864;4.406;2023-04-03T13:26:29;17.40;73.70
25732;DHT22;13585;50.864;4.406;2023-04-03T13:28:59;17.40;73.80
25732;DHT22;13585;50.864;4.406;2023-04-03T13:31:30;17.40;73.80
25732;DHT22;13585;50.864;4.406;2023-04-03T13:41:44;17.50;74.10
25732;DHT22;13585;50.864;4.406;2023-04-03T13:46:56;17.50;74.20
25732;DHT22;13585;50.864;4.406;2023-04-03T13:49:33;17.50;74.20
25732;DHT22;13585;50.864;4.406;2023-04-03T13:51:59;17.50;74.20
25732;DHT22;13585;50.864;4.406;2023-04-03T13:54:29;17.60;74.30
25732;DHT22;13585;50.864;4.406;2023-04-03T13:56:57;17.50;74.30
25732;DHT22;13585;50.864;4.406;2023-04-03T13:59:30;17.50;74.30
25732;DHT22;13585;50.864;4.406;2023-04-03T14:04:30;17.50;74.40
25732;DHT22;13585;50.864;4.406;2023-04-03T14:06:57;17.60;74.40
25732;DHT22;13585;50.864;4.406;2023-04-03T14:12:04;17.60;74.40
25732;DHT22;13585;50.864;4.406;2023-04-03T14:14:33;17.60;74.50
25732;DHT22;13585;50.864;4.406;2023-04-03T14:17:01;17.60;74.50
25732;DHT22;13585;50.864;4.406;2023-04-03T14:19:30;17.60;74.50
25732;DHT22;13585;50.864;4.406;2023-04-03T14:21:58;17.60;74.50
25732;DHT22;13585;50.864;4.406;2023-04-03T14:24:24;17.60;74.50
25732;DHT22;13585;50.864;4.406;2023-04-03T14:26:52;17.70;74.60
25732;DHT22;13585;50.864;4.406;2023-04-03T14:29:19;17.60;74.60
25732;DHT22;13585;50.864;4.406;2023-04-03T14:31:46;17.60;74.60
25732;DHT22;13585;50.864;4.406;2023-04-03T14:34:14;17.60;74.60
25732;DHT22;13585;50.864;4.406;2023-04-03T14:36:42;17.60;74.60
25732;DHT22;13585;50.864;4.406;2023-04-03T14:39:15;17.60;74.60
25732;DHT22;13585;50.864;4.406;2023-04-03T14:41:43;17.60;74.60
25732;DHT22;13585;50.864;4.406;2023-04-03T14:44:09;17.70;74.70
25732;DHT22;13585;50.864;4.406;2023-04-03T14:46:38;17.70;74.60
25732;DHT22;13585;50.864;4.406;2023-04-03T14:49:14;17.70;74.70
25732;DHT22;13585;50.864;4.406;2023-04-03T14:51:39;17.70;74.80
25732;DHT22;13585;50.864;4.406;2023-04-03T14:54:09;17.70;74.60
25732;DHT22;13585;50.864;4.406;2023-04-03T14:56:36;17.70;74.70
25732;DHT22;13585;50.864;4.406;2023-04-03T14:59:04;17.70;74.70
25732;DHT22;13585;50.864;4.406;2023-04-03T15:01:31;17.70;74.70
25732;DHT22;13585;50.864;4.406;2023-04-03T15:03:56;17.70;74.70
25732;DHT22;13585;50.864;4.406;2023-04-03T15:06:22;17.70;74.70
25732;DHT22;13585;50.864;4.406;2023-04-03T15:08:48;17.70;74.70
25732;DHT22;13585;50.864;4.406;2023-04-03T15:11:14;17.70;74.70
25732;DHT22;13585;50.864;4.406;2023-04-03T15:13:40;17.70;74.70
25732;DHT22;13585;50.864;4.406;2023-04-03T15:16:16;17.70;74.70
25732;DHT22;13585;50.864;4.406;2023-04-03T15:18:42;17.70;74.70
25732;DHT22;13585;50.864;4.406;2023-04-03T15:21:08;17.80;74.70
25732;DHT22;13585;50.864;4.406;2023-04-03T15:23:34;17.80;74.70
25732;DHT22;13585;50.864;4.406;2023-04-03T15:25:59;17.80;74.70
25732;DHT22;13585;50.864;4.406;2023-04-03T15:28:35;17.80;74.70
25732;DHT22;13585;50.864;4.406;2023-04-03T15:31:02;17.80;74.70
25732;DHT22;13585;50.864;4.406;2023-04-03T15:33:28;17.80;74.70
25732;DHT22;13585;50.864;4.406;2023-04-03T15:35:54;17.80;74.70
25732;DHT22;13585;50.864;4.406;2023-04-03T15:38:20;17.80;74.70
25732;DHT22;13585;50.864;4.406;2023-04-03T15:40:46;17.80;74.70
25732;DHT22;13585;50.864;4.406;2023-04-03T15:43:14;17.80;74.60
25732;DHT22;13585;50.864;4.406;2023-04-03T15:45:41;17.80;74.60
25732;DHT22;13585;50.864;4.406;2023-04-03T15:48:08;17.80;74.60
25732;DHT22;13585;50.864;4.406;2023-04-03T15:50:34;17.80;74.60
25732;DHT22;13585;50.864;4.406;2023-04-03T15:53:01;17.80;74.60
25732;DHT22;13585;50.864;4.406;2023-04-03T15:55:29;17.90;74.60
25732;DHT22;13585;50.864;4.406;2023-04-03T15:57:56;17.80;74.60
25732;DHT22;13585;50.864;4.406;2023-04-03T16:00:23;17.80;74.50
25732;DHT22;13585;50.864;4.406;2023-04-03T16:02:52;17.90;75.30
25732;DHT22;13585;50.864;4.406;2023-04-03T16:05:18;17.90;74.50
25732;DHT22;13585;50.864;4.406;2023-04-03T16:07:48;17.90;75.20
25732;DHT22;13585;50.864;4.406;2023-04-03T16:10:17;17.90;74.40
25732;DHT22;13585;50.864;4.406;2023-04-03T16:12:43;17.90;74.30
25732;DHT22;13585;50.864;4.406;2023-04-03T16:15:09;17.90;74.30
25732;DHT22;13585;50.864;4.406;2023-04-03T16:17:35;17.90;74.30
25732;DHT22;13585;50.864;4.406;2023-04-03T16:20:07;17.90;74.20
25732;DHT22;13585;50.864;4.406;2023-04-03T16:22:33;17.90;74.10
25732;DHT22;13585;50.864;4.406;2023-04-03T16:24:59;17.90;74.10
25732;DHT22;13585;50.864;4.406;2023-04-03T16:27:25;17.90;74.10
25732;DHT22;13585;50.864;4.406;2023-04-03T16:30:05;17.90;74.00
25732;DHT22;13585;50.864;4.406;2023-04-03T16:32:32;17.90;74.00
25732;DHT22;13585;50.864;4.406;2023-04-03T16:35:04;17.90;73.90
25732;DHT22;13585;50.864;4.406;2023-04-03T16:37:30;17.90;73.80
25732;DHT22;13585;50.864;4.406;2023-04-03T16:39:56;17.90;73.80
25732;DHT22;13585;50.864;4.406;2023-04-03T16:42:24;17.90;73.70
25732;DHT22;13585;50.864;4.406;2023-04-03T16:44:49;17.90;73.70
25732;DHT22;13585;50.864;4.406;2023-04-03T16:47:15;17.90;73.60
25732;DHT22;13585;50.864;4.406;2023-04-03T16:49:44;17.90;73.60
25732;DHT22;13585;50.864;4.406;2023-04-03T16:52:10;17.90;73.50
25732;DHT22;13585;50.864;4.406;2023-04-03T16:54:36;17.80;73.50
25732;DHT22;13585;50.864;4.406;2023-04-03T16:57:02;17.90;73.60
25732;DHT22;13585;50.864;4.406;2023-04-03T16:59:28;17.90;73.60
25732;DHT22;13585;50.864;4.406;2023-04-03T17:01:53;17.90;73.60
25732;DHT22;13585;50.864;4.406;2023-04-03T17:04:19;17.90;73.80
25732;DHT22;13585;50.864;4.406;2023-04-03T17:06:45;17.90;73.80
25732;DHT22;13585;50.864;4.406;2023-04-03T17:09:10;17.90;73.80
25732;DHT22;13585;50.864;4.406;2023-04-03T17:11:37;17.90;73.80
25732;DHT22;13585;50.864;4.406;2023-04-03T17:14:04;17.90;74.60
25732;DHT22;13585;50.864;4.406;2023-04-03T17:16:30;17.90;73.80
25732;DHT22;13585;50.864;4.406;2023-04-03T17:18:57;17.90;73.90
25732;DHT22;13585;50.864;4.406;2023-04-03T17:21:23;17.90;74.10
25732;DHT22;13585;50.864;4.406;2023-04-03T17:23:53;17.90;74.30
25732;DHT22;13585;50.864;4.406;2023-04-03T17:26:19;17.90;74.40
25732;DHT22;13585;50.864;4.406;2023-04-03T17:28:46;17.90;74.50